createdAt,value
2017-09-20T04:28:46.407Z,2
2017-09-20T04:35:52.699Z,5
2017-09-20T04:39:25.512Z,8
2017-09-20T04:41:27.257Z,10
2017-09-20T04:42:59.046Z,13
2017-09-20T04:44:00.017Z,15
2017-09-20T04:45:00.884Z,17
2017-09-20T04:45:30.984Z,20
2017-09-20T04:46:31.826Z,22
2017-09-20T04:47:02.700Z,25
2017-09-20T04:47:32.742Z,28
2017-09-20T04:48:03.671Z,30
2017-09-20T04:48:33.710Z,32
2017-09-20T04:49:04.597Z,35
2017-09-20T04:49:34.611Z,37
2017-09-20T04:50:05.447Z,43
2017-09-20T04:50:35.542Z,45
2017-09-20T04:51:06.399Z,47
2017-09-20T04:51:36.364Z,52
2017-09-20T04:52:07.267Z,55
2017-09-20T04:52:37.330Z,60
2017-09-20T04:53:08.150Z,65
2017-09-20T04:53:38.161Z,67
2017-09-20T04:54:09.042Z,73
2017-09-20T04:54:39.074Z,77
2017-09-20T04:55:10.013Z,83
2017-09-20T04:55:40.040Z,88
2017-09-20T04:56:10.834Z,92
2017-09-20T04:56:40.874Z,98
2017-09-20T04:57:11.781Z,103
2017-09-20T04:57:41.781Z,107
2017-09-20T04:58:12.746Z,112
2017-09-20T04:58:42.732Z,118
2017-09-20T04:59:13.633Z,125
2017-09-20T04:59:43.634Z,130
2017-09-20T05:00:14.477Z,137
2017-09-20T05:00:44.543Z,142
2017-09-20T05:01:15.411Z,150
2017-09-20T05:01:45.451Z,158
2017-09-20T05:02:16.271Z,163
2017-09-20T05:02:46.359Z,170
2017-09-20T05:03:17.231Z,180
2017-09-20T05:03:47.229Z,187
2017-09-20T05:04:18.144Z,197
2017-09-20T05:04:48.118Z,208
2017-09-20T05:05:19.152Z,218
2017-09-20T05:05:49.082Z,227
2017-09-20T05:06:19.900Z,238
2017-09-20T05:06:49.911Z,247
2017-09-20T05:07:20.796Z,260
2017-09-20T05:07:50.883Z,272
2017-09-20T05:08:21.736Z,287
2017-09-20T05:08:51.782Z,300
2017-09-20T05:09:22.657Z,315
2017-09-20T05:09:52.645Z,328
2017-09-20T05:10:23.560Z,343
2017-09-20T05:10:53.628Z,358
2017-09-20T05:11:24.524Z,375
2017-09-20T05:11:54.531Z,392
2017-09-20T05:12:25.408Z,410
2017-09-20T05:12:55.430Z,430
2017-09-20T05:13:26.298Z,448
2017-09-20T05:13:56.266Z,467
2017-09-20T05:14:27.164Z,487
2017-09-20T05:14:57.186Z,510
2017-09-20T05:15:28.138Z,535
2017-09-20T05:15:58.118Z,557
2017-09-20T05:16:28.960Z,585
2017-09-20T05:16:58.991Z,610
2017-09-20T05:17:29.857Z,637
2017-09-20T05:17:59.915Z,662
2017-09-20T05:18:30.788Z,690
2017-09-20T05:19:00.785Z,720
2017-09-20T05:19:31.670Z,750
2017-09-20T05:20:01.714Z,780
2017-09-20T05:20:32.621Z,805
2017-09-20T05:21:02.649Z,835
2017-09-20T05:21:33.495Z,868
2017-09-20T05:22:03.524Z,900
2017-09-20T05:22:34.353Z,932
2017-09-20T05:23:04.459Z,965
2017-09-20T05:23:35.305Z,1003
2017-09-20T05:24:05.365Z,1040
2017-09-20T05:24:36.169Z,1078
2017-09-20T05:25:06.211Z,1115
2017-09-20T05:25:37.097Z,1153
2017-09-20T05:26:07.176Z,1195
2017-09-20T05:26:38.015Z,1237
2017-09-20T05:27:08.017Z,1280
2017-09-20T05:27:39.002Z,1328
2017-09-20T05:28:08.911Z,1372
2017-09-20T05:28:39.782Z,1425
2017-09-20T05:29:09.867Z,1472
2017-09-20T05:29:40.725Z,1538
2017-09-20T05:30:10.726Z,1600
2017-09-20T05:30:41.595Z,1675
2017-09-20T05:31:11.672Z,1753
2017-09-20T05:31:42.526Z,1832
2017-09-20T05:32:12.595Z,1907
2017-09-20T05:32:43.434Z,1975
2017-09-20T05:33:13.485Z,2038
2017-09-20T05:33:44.325Z,2090
2017-09-20T05:34:14.319Z,2143
2017-09-20T05:34:45.194Z,2192
2017-09-20T05:35:15.257Z,2240
2017-09-20T05:35:46.157Z,2287
2017-09-20T05:36:16.197Z,2338
2017-09-20T05:36:47.013Z,2385
2017-09-20T05:37:17.024Z,2425
2017-09-20T05:37:47.897Z,2470
2017-09-20T05:38:17.945Z,2507
2017-09-20T05:38:48.855Z,2548
2017-09-20T05:39:18.900Z,2585
2017-09-20T05:39:49.713Z,2627
2017-09-20T05:40:19.750Z,2675
2017-09-20T05:40:50.619Z,2722
2017-09-20T05:41:20.655Z,2780
2017-09-20T05:41:51.547Z,2845
2017-09-20T05:42:21.616Z,2905
2017-09-20T05:42:52.475Z,2972
2017-09-20T05:43:22.538Z,3043
2017-09-20T05:43:53.363Z,3118
2017-09-20T05:44:23.352Z,3188
2017-09-20T05:44:54.255Z,3248
2017-09-20T05:45:24.248Z,3272
2017-09-20T05:45:55.166Z,3248
2017-09-20T05:46:25.205Z,3212
2017-09-20T05:46:56.023Z,3285
2017-09-20T05:47:26.053Z,3403
2017-09-20T05:47:56.925Z,3472
2017-09-20T05:48:26.955Z,3362
2017-09-20T05:48:57.891Z,3080
2017-09-20T05:49:27.863Z,2822
2017-09-20T05:49:58.735Z,2713
2017-09-20T05:50:28.778Z,2705
2017-09-20T05:50:59.699Z,2720
2017-09-20T05:51:29.755Z,2740
2017-09-20T05:52:00.693Z,2773
2017-09-20T05:52:30.625Z,2807
2017-09-20T05:53:01.519Z,2858
2017-09-20T05:53:31.506Z,2905
2017-09-20T05:54:02.363Z,2957
2017-09-20T05:54:32.397Z,3017
2017-09-20T05:55:03.336Z,3077
2017-09-20T05:55:33.359Z,3145
2017-09-20T05:56:04.234Z,3200
2017-09-20T05:56:34.281Z,3257
2017-09-20T05:57:05.091Z,3322
2017-09-20T05:57:35.143Z,3377
2017-09-20T05:58:05.998Z,3420
2017-09-20T05:58:36.031Z,3437
2017-09-20T05:59:06.983Z,3445
2017-09-20T05:59:37.005Z,3437
2017-09-20T06:00:37.851Z,3433
2017-09-20T06:01:08.775Z,3418
2017-09-20T06:01:38.775Z,3377
2017-09-20T06:02:09.703Z,3322
2017-09-20T06:02:39.730Z,3250
2017-09-20T06:03:10.615Z,3178
2017-09-20T06:03:40.625Z,3112
2017-09-20T06:04:11.510Z,3068
2017-09-20T06:04:41.569Z,3037
2017-09-20T06:05:12.437Z,3020
2017-09-20T06:05:42.426Z,3010
2017-09-20T06:06:13.313Z,3000
2017-09-20T06:06:43.373Z,2992
2017-09-20T06:09:16.068Z,2715
2017-09-20T06:09:46.130Z,2623
2017-09-20T06:10:16.988Z,2550
2017-09-20T06:10:46.949Z,2500
2017-09-20T06:11:17.829Z,2485
2017-09-20T06:11:47.914Z,2495
2017-09-20T06:12:18.754Z,2518
2017-09-20T06:12:48.801Z,2545
2017-09-20T06:13:19.595Z,2570
2017-09-20T06:13:49.674Z,2593
2017-09-20T06:14:20.496Z,2608
2017-09-20T06:14:50.563Z,2610
2017-09-20T06:15:21.438Z,2603
2017-09-20T06:15:51.460Z,2597
2017-09-20T06:16:22.368Z,2600
2017-09-20T06:16:52.389Z,2603
2017-09-20T06:17:23.202Z,2605
2017-09-20T06:17:53.328Z,2608
2017-09-20T06:18:24.112Z,2605
2017-09-20T06:18:54.142Z,2603
2017-09-20T06:19:25.049Z,2595
2017-09-20T06:19:55.031Z,2588
2017-09-20T06:20:25.899Z,2580
2017-09-20T06:20:55.938Z,2575
2017-09-20T06:21:26.805Z,2567
2017-09-20T06:21:56.832Z,2570
2017-09-20T06:22:27.773Z,2585
2017-09-20T06:22:57.794Z,2612
2017-09-20T06:23:28.676Z,2683
2017-09-20T06:23:58.691Z,2653
2017-09-20T06:24:29.535Z,2585
2017-09-20T06:24:59.599Z,2557
2017-09-20T06:25:30.481Z,2518
2017-09-20T06:26:00.563Z,2488
2017-09-20T06:26:31.368Z,2445
2017-09-20T06:27:01.417Z,2395
2017-09-20T06:27:32.286Z,2342
2017-09-20T06:28:02.257Z,2300
2017-09-20T06:28:33.131Z,2260
2017-09-20T06:29:03.171Z,2228
2017-09-20T06:29:34.085Z,2197
2017-09-20T06:30:04.128Z,2173
2017-09-20T06:30:34.952Z,2150
2017-09-20T06:31:04.977Z,2132
2017-09-20T06:31:35.842Z,2120
2017-09-20T06:32:05.878Z,2115
2017-09-20T06:32:36.808Z,2123
2017-09-20T06:33:06.828Z,2150
2017-09-20T06:33:37.651Z,2203
2017-09-20T06:34:07.674Z,2278
2017-09-20T06:34:38.597Z,2368
2017-09-20T06:35:08.602Z,2462
2017-09-20T06:35:39.512Z,2638
2017-09-20T06:36:09.540Z,2685
2017-09-20T06:36:40.385Z,2767
2017-09-20T06:37:10.462Z,2850
2017-09-20T06:37:41.350Z,2945
2017-09-20T06:38:11.317Z,3075
2017-09-20T06:38:42.178Z,3242
2017-09-20T06:39:12.211Z,3422
2017-09-20T06:39:43.146Z,3643
2017-09-20T06:40:13.169Z,3900
2017-09-20T06:40:43.980Z,4177
2017-09-20T06:41:14.017Z,4450
2017-09-20T06:41:44.881Z,4732
2017-09-20T06:42:14.915Z,5005
2017-09-20T06:42:45.822Z,5302
2017-09-20T06:43:15.860Z,5600
2017-09-20T06:43:46.692Z,5870
2017-09-20T06:44:16.713Z,6137
2017-09-20T06:44:47.592Z,6450
2017-09-20T06:45:17.649Z,6793
2017-09-20T06:45:48.559Z,7360
2017-09-20T06:46:18.543Z,8480
2017-09-20T06:46:49.464Z,9337
2017-09-20T06:47:19.437Z,8600
2017-09-20T06:47:50.360Z,8587
2017-09-20T06:48:20.355Z,8653
2017-09-20T06:48:51.250Z,8980
2017-09-20T06:49:21.230Z,9328
2017-09-20T06:49:52.175Z,9720
2017-09-20T06:50:22.191Z,10138
2017-09-20T06:50:53.009Z,10360
2017-09-20T06:51:23.035Z,10663
2017-09-20T06:51:53.921Z,10978
2017-09-20T06:52:23.943Z,11483
2017-09-20T06:52:54.872Z,13348
2017-09-20T06:53:24.909Z,16268
2017-09-20T06:53:55.723Z,15830
2017-09-20T06:54:25.749Z,15095
2017-09-20T06:54:56.625Z,14573
2017-09-20T06:55:26.653Z,11835
2017-09-20T06:55:57.566Z,10775
2017-09-20T06:56:27.608Z,9940
2017-09-20T06:56:58.458Z,9190
2017-09-20T06:57:28.521Z,8610
2017-09-20T06:57:59.354Z,8185
2017-09-20T06:58:29.425Z,7910
2017-09-20T06:59:00.306Z,7685
2017-09-20T06:59:30.286Z,7490
2017-09-20T07:00:01.201Z,7290
2017-09-20T07:00:31.218Z,7105
2017-09-20T07:01:02.037Z,6965
2017-09-20T07:01:32.061Z,6885
2017-09-20T07:02:02.935Z,6812
2017-09-20T07:02:32.976Z,6688
2017-09-20T07:03:03.905Z,6508
2017-09-20T07:03:33.912Z,6307
2017-09-20T07:04:04.773Z,6095
2017-09-20T07:04:34.794Z,5920
2017-09-20T07:05:05.654Z,5785
2017-09-20T07:05:35.677Z,5732
2017-09-20T07:06:06.625Z,5770
2017-09-20T07:06:36.615Z,5880
2017-09-20T07:07:07.466Z,6050
2017-09-20T07:07:37.546Z,6197
2017-09-20T07:08:08.417Z,6307
2017-09-20T07:08:38.426Z,6380
2017-09-20T07:09:09.241Z,6458
2017-09-20T07:09:39.271Z,6548
2017-09-20T07:10:10.221Z,6637
2017-09-20T07:10:40.183Z,6710
2017-09-20T07:11:11.055Z,6745
2017-09-20T07:11:41.163Z,6767
2017-09-20T07:12:11.981Z,6800
2017-09-20T07:12:41.992Z,6880
2017-09-20T07:13:12.906Z,6977
2017-09-20T07:13:42.954Z,7097
2017-09-20T07:14:13.765Z,7232
2017-09-20T07:14:43.818Z,7363
2017-09-20T07:15:14.669Z,7483
2017-09-20T07:15:44.758Z,7625
2017-09-20T07:16:15.597Z,7783
2017-09-20T07:16:45.658Z,7922
2017-09-20T07:17:16.498Z,8090
2017-09-20T07:17:46.522Z,8272
2017-09-20T07:18:17.424Z,8475
2017-09-20T07:18:47.410Z,8675
2017-09-20T07:19:18.315Z,8872
2017-09-20T07:19:48.313Z,9065
2017-09-20T07:20:19.247Z,9283
2017-09-20T07:20:49.264Z,9485
2017-09-20T07:21:20.089Z,9715
2017-09-20T07:21:50.115Z,9925
2017-09-20T07:22:20.989Z,10160
2017-09-20T07:22:51.024Z,10330
2017-09-20T07:23:21.946Z,10565
2017-09-20T07:23:51.991Z,10807
2017-09-20T07:24:22.803Z,11057
2017-09-20T07:24:52.821Z,11215
2017-09-20T07:25:23.812Z,11323
2017-09-20T07:25:53.758Z,11402
2017-09-20T07:26:24.662Z,11500
2017-09-20T07:26:54.628Z,11520
2017-09-20T07:27:25.584Z,11452
2017-09-20T07:27:55.589Z,11338
2017-09-20T07:28:26.471Z,11320
2017-09-20T07:28:56.474Z,11415
2017-09-20T07:29:27.372Z,11612
2017-09-20T07:29:57.358Z,11882
2017-09-20T07:30:28.251Z,12365
2017-09-20T07:30:58.303Z,13618
2017-09-20T07:31:29.122Z,14680
2017-09-20T07:31:59.181Z,18155
2017-09-20T07:32:30.021Z,17242
2017-09-20T07:33:00.057Z,19365
2017-09-20T07:33:30.942Z,19790
2017-09-20T07:34:00.958Z,18870
2017-09-20T07:34:31.851Z,19798
2017-09-20T07:35:01.863Z,20470
2017-09-20T07:35:32.742Z,18827
2017-09-20T07:36:02.779Z,17533
2017-09-20T07:36:33.699Z,18940
2017-09-20T07:37:03.721Z,18555
2017-09-20T07:37:34.592Z,17647
2017-09-20T07:38:04.580Z,17215
2017-09-20T07:38:35.471Z,17017
2017-09-20T07:39:05.546Z,16920
2017-09-20T07:39:36.371Z,16738
2017-09-20T07:40:06.442Z,17030
2017-09-20T07:40:37.314Z,16960
2017-09-20T07:41:07.342Z,16993
2017-09-20T07:42:08.186Z,17353
2017-09-20T07:42:39.119Z,17820
2017-09-20T07:43:09.094Z,17975
2017-09-20T07:43:40.015Z,17792
2017-09-20T07:44:09.999Z,16457
2017-09-20T07:44:40.965Z,16537
2017-09-20T07:45:10.897Z,16415
2017-09-20T07:45:41.784Z,15520
2017-09-20T07:46:11.837Z,14970
2017-09-20T07:46:42.751Z,13950
2017-09-20T07:47:12.763Z,12742
2017-09-20T07:47:43.596Z,10915
2017-09-20T07:48:13.680Z,9973
2017-09-20T07:48:44.523Z,9962
2017-09-20T07:49:14.555Z,10100
2017-09-20T07:49:45.445Z,9698
2017-09-20T07:50:15.479Z,10115
2017-09-20T07:50:46.347Z,10838
2017-09-20T07:51:16.403Z,9827
2017-09-20T07:51:47.347Z,10162
2017-09-20T07:52:17.247Z,10425
2017-09-20T07:52:48.145Z,9422
2017-09-20T07:53:18.149Z,9100
2017-09-20T07:53:49.057Z,10265
2017-09-20T07:54:19.092Z,9770
2017-09-20T07:54:49.929Z,8825
2017-09-20T07:55:19.963Z,8447
2017-09-20T07:55:50.858Z,8858
2017-09-20T07:56:20.854Z,7825
2017-09-20T07:56:51.796Z,7565
2017-09-20T07:57:21.761Z,7468
2017-09-20T07:57:52.637Z,7435
2017-09-20T07:58:22.725Z,7425
2017-09-20T07:58:53.591Z,7410
2017-09-20T07:59:23.594Z,7450
2017-09-20T07:59:54.483Z,7538
2017-09-20T08:00:24.530Z,7423
2017-09-20T08:00:55.405Z,7258
2017-09-20T08:01:25.429Z,7480
2017-09-20T08:01:56.307Z,7658
2017-09-20T08:02:26.277Z,7725
2017-09-20T08:02:57.220Z,7610
2017-09-20T08:03:27.184Z,7510
2017-09-20T08:03:58.111Z,7538
2017-09-20T08:04:28.144Z,7678
2017-09-20T08:04:58.953Z,7760
2017-09-20T08:05:28.987Z,7790
2017-09-20T08:05:59.853Z,7838
2017-09-20T08:06:29.892Z,7730
2017-09-20T08:07:00.759Z,7640
2017-09-20T08:07:30.864Z,7740
2017-09-20T08:08:01.669Z,8295
2017-09-20T08:08:31.761Z,8627
2017-09-20T08:09:02.615Z,9202
2017-09-20T08:09:32.613Z,10408
2017-09-20T08:10:03.530Z,10333
2017-09-20T08:10:33.565Z,9815
2017-09-20T08:11:04.424Z,8272
2017-09-20T08:11:34.407Z,7448
2017-09-20T08:12:05.330Z,6197
2017-09-20T08:12:35.364Z,5792
2017-09-20T08:13:06.184Z,5605
2017-09-20T08:13:36.256Z,5473
2017-09-20T08:14:07.158Z,5400
2017-09-20T08:14:37.186Z,5297
2017-09-20T08:15:07.990Z,5065
2017-09-20T08:15:38.076Z,5035
2017-09-20T08:16:08.919Z,5152
2017-09-20T08:16:38.925Z,5323
2017-09-20T08:17:09.840Z,5560
2017-09-20T08:17:39.895Z,5857
2017-09-20T08:18:10.744Z,6232
2017-09-20T08:18:40.756Z,6407
2017-09-20T08:19:11.634Z,6307
2017-09-20T08:19:41.661Z,6230
2017-09-20T08:20:12.574Z,6280
2017-09-20T08:20:42.610Z,6347
2017-09-20T08:21:13.454Z,6670
2017-09-20T08:21:43.521Z,7040
2017-09-20T08:22:14.405Z,7535
2017-09-20T08:22:44.374Z,8400
2017-09-20T08:23:15.378Z,9420
2017-09-20T08:23:45.314Z,10798
2017-09-20T08:24:16.198Z,11680
2017-09-20T08:24:46.235Z,12418
2017-09-20T08:25:17.057Z,15092
2017-09-20T08:25:47.103Z,14845
2017-09-20T08:26:17.954Z,21780
2017-09-20T08:26:47.976Z,21472
2017-09-20T08:27:18.926Z,29467
2017-09-20T08:27:48.938Z,30000
2017-09-20T08:28:19.897Z,19535
2017-09-20T08:28:49.791Z,15977
2017-09-20T08:29:20.665Z,12965
2017-09-20T08:29:50.734Z,11528
2017-09-20T08:30:21.613Z,11147
2017-09-20T08:30:51.672Z,11565
2017-09-20T08:31:22.479Z,11540
2017-09-20T08:31:52.530Z,10615
2017-09-20T08:32:23.442Z,9553
2017-09-20T08:32:53.434Z,8940
2017-09-20T08:33:24.334Z,8257
2017-09-20T08:33:54.386Z,7675
2017-09-20T08:34:25.238Z,7472
2017-09-20T08:34:55.300Z,7905
2017-09-20T08:35:26.165Z,8537
2017-09-20T08:35:56.153Z,9317
2017-09-20T08:36:27.036Z,10240
2017-09-20T08:36:57.058Z,10925
2017-09-20T08:37:27.936Z,11320
2017-09-20T08:37:58.012Z,12128
2017-09-20T08:38:28.968Z,13880
2017-09-20T08:38:58.897Z,15857
2017-09-20T08:39:29.768Z,24680
2017-09-20T08:39:59.790Z,24767
2017-09-20T08:40:30.722Z,36763
2017-09-20T08:41:00.692Z,36362
2017-09-20T08:41:31.619Z,35032
2017-09-20T08:42:01.663Z,32850
2017-09-20T08:42:32.494Z,17810
2017-09-20T08:43:02.545Z,20837
2017-09-20T08:43:33.475Z,16220
2017-09-20T08:44:03.482Z,15532
2017-09-20T08:44:34.352Z,15460
2017-09-20T08:45:04.392Z,16232
2017-09-20T08:45:35.196Z,16142
2017-09-20T08:46:05.257Z,16930
2017-09-20T08:46:36.093Z,16297
2017-09-20T08:47:06.131Z,16642
2017-09-20T08:47:37.065Z,15113
2017-09-20T08:48:07.104Z,14450
2017-09-20T08:48:37.912Z,15410
2017-09-20T08:49:08.074Z,15495
2017-09-20T08:49:38.862Z,15530
2017-09-20T08:50:08.852Z,15885
2017-09-20T08:50:39.782Z,14380
2017-09-20T08:51:09.808Z,13785
2017-09-20T08:51:40.667Z,13405
2017-09-20T08:52:10.658Z,13067
2017-09-20T08:52:41.564Z,12272
2017-09-20T08:53:11.590Z,11473
2017-09-20T08:53:42.548Z,11162
2017-09-20T08:54:12.500Z,10982
2017-09-20T08:54:43.402Z,11098
2017-09-20T08:55:13.453Z,11402
2017-09-20T08:55:44.252Z,11582
2017-09-20T08:56:14.328Z,11162
2017-09-20T08:56:45.178Z,10935
2017-09-20T08:57:15.233Z,11345
2017-09-20T08:57:46.124Z,11852
2017-09-20T08:58:16.123Z,12427
2017-09-20T08:58:46.971Z,13243
2017-09-20T08:59:17.011Z,14182
2017-09-20T08:59:47.862Z,15113
2017-09-20T09:00:17.891Z,15592
2017-09-20T09:00:48.802Z,15797
2017-09-20T09:01:18.835Z,16480
2017-09-20T09:01:49.692Z,17320
2017-09-20T09:02:19.730Z,17833
2017-09-20T09:02:50.598Z,19375
2017-09-20T09:03:20.628Z,19265
2017-09-20T09:03:51.518Z,20260
2017-09-20T09:04:21.579Z,20090
2017-09-20T09:04:52.429Z,20402
2017-09-20T09:05:22.431Z,20578
2017-09-20T09:05:53.322Z,20160
2017-09-20T09:06:23.402Z,19633
2017-09-20T09:06:54.229Z,19305
2017-09-20T09:07:24.276Z,17925
2017-09-20T09:07:55.153Z,17440
2017-09-20T09:08:25.205Z,17182
2017-09-20T09:08:56.034Z,17630
2017-09-20T09:09:26.046Z,17990
2017-09-20T09:09:56.924Z,18983
2017-09-20T09:10:26.957Z,18748
2017-09-20T09:10:57.864Z,17645
2017-09-20T09:11:27.933Z,15427
2017-09-20T09:11:58.722Z,14242
2017-09-20T09:12:28.875Z,13860
2017-09-20T09:12:59.641Z,14710
2017-09-20T09:13:29.704Z,15028
2017-09-20T09:14:00.690Z,15553
2017-09-20T09:14:30.602Z,16253
2017-09-20T09:15:01.617Z,20515
2017-09-20T09:15:31.513Z,30190
2017-09-20T09:16:02.419Z,35120
2017-09-20T09:16:32.395Z,33960
2017-09-20T09:17:03.246Z,34738
2017-09-20T09:17:33.305Z,32440
2017-09-20T09:18:04.224Z,31255
2017-09-20T09:18:34.233Z,34178
2017-09-20T09:19:05.047Z,35335
2017-09-20T09:19:35.097Z,23330
2017-09-20T09:20:05.953Z,33090
2017-09-20T09:20:35.979Z,33923
2017-09-20T09:21:06.880Z,34465
2017-09-20T09:21:36.914Z,18928
2017-09-20T09:22:07.775Z,14518
2017-09-20T09:22:37.795Z,28168
2017-09-20T09:23:08.710Z,35287
2017-09-20T09:23:38.701Z,17678
2017-09-20T09:24:09.600Z,37138
2017-09-20T09:24:39.668Z,36643
2017-09-20T09:25:10.492Z,36470
2017-09-20T09:25:40.522Z,34087
2017-09-20T09:26:11.423Z,35897
2017-09-20T09:26:41.469Z,37145
2017-09-20T09:27:12.345Z,38428
2017-09-20T09:27:42.351Z,39617
2017-09-20T09:28:13.260Z,41497
2017-09-20T09:28:43.290Z,38560
2017-09-20T09:29:14.148Z,19078
2017-09-20T09:29:44.184Z,19855
2017-09-20T09:30:15.011Z,43450
2017-09-20T09:30:45.048Z,20582
2017-09-20T09:31:15.992Z,19000
2017-09-20T09:31:45.985Z,19277
2017-09-20T09:32:16.851Z,33523
2017-09-20T09:32:46.847Z,24698
2017-09-20T09:33:17.721Z,40967
2017-09-20T09:33:47.773Z,38505
2017-09-20T09:34:18.695Z,19363
2017-09-20T09:34:48.720Z,18712
2017-09-20T09:35:19.601Z,19260
2017-09-20T09:35:49.579Z,16010
2017-09-20T09:36:20.437Z,9795
2017-09-20T09:36:50.518Z,8075
2017-09-20T09:37:21.394Z,7325
2017-09-20T09:37:51.447Z,6980
2017-09-20T09:38:22.312Z,6793
2017-09-20T09:38:52.350Z,6838
2017-09-20T09:39:23.166Z,7088
2017-09-20T09:39:53.191Z,7328
2017-09-20T09:40:24.066Z,7610
2017-09-20T09:40:54.123Z,7963
2017-09-20T09:41:25.015Z,8630
2017-09-20T09:41:55.104Z,9220
2017-09-20T09:42:25.883Z,9645
2017-09-20T09:42:55.907Z,10162
2017-09-20T09:43:26.769Z,10775
2017-09-20T09:43:56.807Z,11368
2017-09-20T09:44:27.751Z,11850
2017-09-20T09:44:57.786Z,12640
2017-09-20T09:45:28.598Z,13030
2017-09-20T09:45:58.640Z,12598
2017-09-20T09:46:29.513Z,12998
2017-09-20T09:46:59.582Z,13262
2017-09-20T09:47:30.402Z,13657
2017-09-20T09:48:00.684Z,14938
2017-09-20T09:48:31.348Z,14350
2017-09-20T09:49:01.379Z,13982
2017-09-20T09:49:32.244Z,14985
2017-09-20T09:50:02.241Z,15355
2017-09-20T09:50:33.167Z,15360
2017-09-20T09:51:03.161Z,24255
2017-09-20T09:51:34.031Z,20310
2017-09-20T09:52:04.089Z,15230
2017-09-20T09:52:34.916Z,13290
2017-09-20T09:53:04.957Z,12302
2017-09-20T09:53:35.829Z,12135
2017-09-20T09:54:05.870Z,13367
2017-09-20T09:54:36.780Z,12778
2017-09-20T09:55:06.793Z,13335
2017-09-20T09:55:37.640Z,15002
2017-09-20T09:56:07.655Z,17188
2017-09-20T09:56:38.596Z,16223
2017-09-20T09:57:08.579Z,24295
2017-09-20T09:57:39.456Z,21595
2017-09-20T09:58:09.525Z,18857
2017-09-20T09:58:40.350Z,23800
2017-09-20T09:59:10.418Z,19225
2017-09-20T09:59:41.251Z,23753
2017-09-20T10:00:11.263Z,23850
2017-09-20T10:00:42.173Z,27045
2017-09-20T10:01:12.180Z,32565
2017-09-20T10:01:43.078Z,28645
2017-09-20T10:02:13.128Z,29788
2017-09-20T10:02:43.944Z,37665
2017-09-20T10:03:13.986Z,44297
2017-09-20T10:03:44.958Z,42983
2017-09-20T10:04:14.903Z,42512
2017-09-20T10:04:45.812Z,42548
2017-09-20T10:05:15.779Z,41597
2017-09-20T10:05:46.654Z,43753
2017-09-20T10:06:16.703Z,37735
2017-09-20T10:06:47.618Z,34540
2017-09-20T10:07:17.655Z,31747
2017-09-20T10:07:48.610Z,25363
2017-09-20T10:08:18.520Z,30077
2017-09-20T10:08:49.432Z,39675
2017-09-20T10:09:19.468Z,36998
2017-09-20T10:09:50.316Z,32848
2017-09-20T10:10:20.309Z,40670
2017-09-20T10:10:51.228Z,32587
2017-09-20T10:11:21.201Z,35053
2017-09-20T10:11:52.136Z,26640
2017-09-20T10:12:22.166Z,37183
2017-09-20T10:12:52.971Z,37945
2017-09-20T10:13:23.004Z,40115
2017-09-20T10:13:53.877Z,38610
2017-09-20T10:14:23.932Z,38413
2017-09-20T10:14:54.820Z,34183
2017-09-20T10:15:24.815Z,27982
2017-09-20T10:15:55.682Z,29483
2017-09-20T10:16:25.733Z,34950
2017-09-20T10:16:56.639Z,35462
2017-09-20T10:17:26.627Z,29123
2017-09-20T10:17:57.551Z,30510
2017-09-20T10:18:27.537Z,31463
2017-09-20T10:18:58.436Z,30120
2017-09-20T10:19:28.485Z,30815
2017-09-20T10:19:59.308Z,27950
2017-09-20T10:20:29.383Z,24960
2017-09-20T10:21:00.218Z,20430
2017-09-20T10:21:30.266Z,30105
2017-09-20T10:22:01.120Z,37588
2017-09-20T10:22:31.235Z,50275
2017-09-20T10:23:02.010Z,33713
2017-09-20T10:23:32.049Z,42707
2017-09-20T10:24:02.920Z,43060
2017-09-20T10:24:32.989Z,47527
2017-09-20T10:25:03.902Z,40235
2017-09-20T10:25:33.915Z,39520
2017-09-20T10:26:04.726Z,42617
2017-09-20T10:26:34.758Z,35755
2017-09-20T10:27:05.641Z,40865
2017-09-20T10:27:35.679Z,38822
2017-09-20T10:28:06.567Z,11910
2017-09-20T10:28:36.608Z,9615
2017-09-20T10:29:07.508Z,8372
2017-09-20T10:29:37.525Z,7682
2017-09-20T10:30:08.368Z,7222
2017-09-20T10:30:38.432Z,6788
2017-09-20T10:31:09.271Z,6455
2017-09-20T10:31:39.324Z,6328
2017-09-20T10:32:10.212Z,6350
2017-09-20T10:32:40.258Z,6493
2017-09-20T10:33:11.066Z,6775
2017-09-20T10:33:41.141Z,7190
2017-09-20T10:34:11.983Z,7532
2017-09-20T10:34:41.999Z,7873
2017-09-20T10:35:12.945Z,8267
2017-09-20T10:35:42.977Z,8452
2017-09-20T10:36:13.780Z,8310
2017-09-20T10:36:43.827Z,8005
2017-09-20T10:37:14.738Z,7708
2017-09-20T10:37:44.710Z,7637
2017-09-20T10:38:15.614Z,7720
2017-09-20T10:38:45.646Z,7960
2017-09-20T10:39:16.538Z,8207
2017-09-20T10:39:46.511Z,8518
2017-09-20T10:40:17.457Z,9022
2017-09-20T10:40:47.449Z,9740
2017-09-20T10:41:18.311Z,10487
2017-09-20T10:41:48.339Z,11147
2017-09-20T10:42:19.237Z,11805
2017-09-20T10:42:49.285Z,12377
2017-09-20T10:43:20.102Z,12945
2017-09-20T10:43:50.126Z,13472
2017-09-20T10:44:21.028Z,14038
2017-09-20T10:44:51.042Z,14638
2017-09-20T10:45:21.932Z,15173
2017-09-20T10:45:51.988Z,15727
2017-09-20T10:46:22.807Z,16225
2017-09-20T10:46:52.858Z,16748
2017-09-20T10:47:23.770Z,17893
2017-09-20T10:47:53.756Z,20522
2017-09-20T10:48:24.684Z,26515
2017-09-20T10:48:54.726Z,25200
2017-09-20T10:49:25.605Z,27505
2017-09-20T10:49:55.579Z,24995
2017-09-20T10:50:26.445Z,38027
2017-09-20T10:50:56.537Z,40358
2017-09-20T10:51:27.366Z,45590
2017-09-20T10:51:57.424Z,45000
2017-09-20T10:52:28.309Z,45535
2017-09-20T10:52:58.332Z,46390
2017-09-20T10:53:29.157Z,48245
2017-09-20T10:53:59.181Z,46078
2017-09-20T10:54:30.048Z,38723
2017-09-20T10:55:00.084Z,42740
2017-09-20T10:55:30.989Z,50955
2017-09-20T10:56:00.981Z,47402
2017-09-20T10:56:31.864Z,44438
2017-09-20T10:57:01.884Z,51180
2017-09-20T10:57:32.776Z,45040
2017-09-20T10:58:02.829Z,44745
2017-09-20T10:58:33.723Z,45795
2017-09-20T10:59:03.761Z,39683
2017-09-20T10:59:34.638Z,40475
2017-09-20T11:00:04.625Z,34105
2017-09-20T11:00:35.535Z,35925
2017-09-20T11:01:05.572Z,48880
2017-09-20T11:01:36.469Z,37573
2017-09-20T11:02:06.438Z,54572
2017-09-20T11:02:37.332Z,31225
2017-09-20T11:03:07.326Z,24480
2017-09-20T11:03:38.196Z,24212
2017-09-20T11:04:08.246Z,37352
2017-09-20T11:04:39.135Z,39533
2017-09-20T11:05:09.134Z,35230
2017-09-20T11:05:40.066Z,23665
2017-09-20T11:06:10.093Z,25280
2017-09-20T11:06:40.926Z,25427
2017-09-20T11:07:10.936Z,26565
2017-09-20T11:07:41.815Z,22325
2017-09-20T11:08:11.861Z,26398
2017-09-20T11:08:42.753Z,35828
2017-09-20T11:09:12.824Z,28165
2017-09-20T11:09:43.624Z,26305
2017-09-20T11:10:13.651Z,27307
2017-09-20T11:10:44.569Z,29297
2017-09-20T11:11:14.557Z,30615
2017-09-20T11:11:45.448Z,29270
2017-09-20T11:12:15.540Z,28945
2017-09-20T11:12:46.412Z,28375
2017-09-20T11:13:16.438Z,28352
2017-09-20T11:13:47.256Z,29635
2017-09-20T11:14:17.337Z,27818
2017-09-20T11:14:48.193Z,32165
2017-09-20T11:15:18.182Z,31865
2017-09-20T11:15:49.055Z,29730
2017-09-20T11:16:19.217Z,28265
2017-09-20T11:16:49.967Z,24965
2017-09-20T11:17:19.996Z,24415
2017-09-20T11:17:50.880Z,31457
2017-09-20T11:18:20.975Z,31738
2017-09-20T11:18:51.881Z,31867
2017-09-20T11:19:21.823Z,29405
2017-09-20T11:19:52.691Z,31385
2017-09-20T11:20:22.804Z,40230
2017-09-20T11:20:53.626Z,34588
2017-09-20T11:21:23.627Z,29773
2017-09-20T11:21:54.575Z,34460
2017-09-20T11:22:24.616Z,22895
2017-09-20T11:22:55.452Z,18070
2017-09-20T11:23:25.498Z,17040
2017-09-20T11:23:56.353Z,17895
2017-09-20T11:24:26.351Z,16820
2017-09-20T11:24:57.256Z,16870
2017-09-20T11:25:27.244Z,16337
2017-09-20T11:25:58.155Z,15358